sensor_id;sensor_type;location;lat;lon;timestamp;pressure;altitude;pressure_sealevel;temperature;humidity
21574;BME280;10948;48.706;9.258;2023-03-19T00:01:12;97486.41;;;10.45;100.00
21574;BME280;10948;48.706;9.258;2023-03-19T00:03:37;97478.72;;;10.56;100.00
21574;BME280;10948;48.706;9.258;2023-03-19T00:06:02;97489.09;;;10.03;100.00
21574;BME280;10948;48.706;9.258;2023-03-19T00:08:27;97487.78;;;9.96;100.00
21574;BME280;10948;48.706;9.258;2023-03-19T00:10:53;97485.72;;;10.01;100.00
21574;BME280;10948;48.706;9.258;2023-03-19T00:13:18;97483.16;;;9.73;100.00
21574;BME280;10948;48.706;9.258;2023-03-19T00:15:44;97483.34;;;9.84;100.00
21574;BME280;10948;48.706;9.258;2023-03-19T00:18:09;97487.56;;;10.27;100.00
21574;BME280;10948;48.706;9.258;2023-03-19T00:20:35;97490.53;;;10.21;100.00
21574;BME280;10948;48.706;9.258;2023-03-19T00:23:00;97484.09;;;9.72;100.00
21574;BME280;10948;48.706;9.258;2023-03-19T00:25:25;97495.59;;;9.54;100.00
21574;BME280;10948;48.706;9.258;2023-03-19T00:27:51;97484.63;;;10.19;100.00
21574;BME280;10948;48.706;9.258;2023-03-19T00:30:18;97486.94;;;9.96;100.00
21574;BME280;10948;48.706;9.258;2023-03-19T00:32:44;97486.13;;;9.81;100.00
21574;BME280;10948;48.706;9.258;2023-03-19T00:35:09;97489.25;;;10.00;100.00
21574;BME280;10948;48.706;9.258;2023-03-19T00:37:35;97489.25;;;10.14;100.00
21574;BME280;10948;48.706;9.258;2023-03-19T00:40:01;97490.72;;;10.32;100.00
21574;BME280;10948;48.706;9.258;2023-03-19T00:42:26;97487.78;;;10.24;100.00
21574;BME280;10948;48.706;9.258;2023-03-19T00:44:51;97487.78;;;9.96;100.00
21574;BME280;10948;48.706;9.258;2023-03-19T00:47:17;97490.75;;;9.76;100.00
21574;BME280;10948;48.706;9.258;2023-03-19T00:49:42;97494.41;;;9.88;100.00
21574;BME280;10948;48.706;9.258;2023-03-19T00:52:07;97497.53;;;9.79;100.00
21574;BME280;10948;48.706;9.258;2023-03-19T00:54:32;97498.75;;;9.87;100.00
21574;BME280;10948;48.706;9.258;2023-03-19T00:56:58;97497.91;;;10.01;100.00
21574;BME280;10948;48.706;9.258;2023-03-19T00:59:24;97501.00;;;9.51;100.00
21574;BME280;10948;48.706;9.258;2023-03-19T01:01:49;97507.28;;;9.61;100.00
21574;BME280;10948;48.706;9.258;2023-03-19T01:04:15;97502.47;;;9.55;100.00
21574;BME280;10948;48.706;9.258;2023-03-19T01:06:41;97504.69;;;9.75;100.00
21574;BME280;10948;48.706;9.258;2023-03-19T01:09:06;97498.38;;;9.65;100.00
21574;BME280;10948;48.706;9.258;2023-03-19T01:11:32;97512.47;;;9.89;100.00
21574;BME280;10948;48.706;9.258;2023-03-19T01:13:57;97502.28;;;9.86;100.00
21574;BME280;10948;48.706;9.258;2023-03-19T01:16:22;97511.38;;;9.79;100.00
21574;BME280;10948;48.706;9.258;2023-03-19T01:18:47;97511.19;;;10.10;100.00
21574;BME280;10948;48.706;9.258;2023-03-19T01:21:13;97512.84;;;9.83;100.00
21574;BME280;10948;48.706;9.258;2023-03-19T01:23:38;97517.97;;;9.71;100.00
21574;BME280;10948;48.706;9.258;2023-03-19T01:26:04;97519.09;;;9.81;100.00
21574;BME280;10948;48.706;9.258;2023-03-19T01:28:29;97525.38;;;9.91;100.00
21574;BME280;10948;48.706;9.258;2023-03-19T01:30:58;97528.25;;;10.00;100.00
21574;BME280;10948;48.706;9.258;2023-03-19T01:33:24;97537.56;;;10.18;100.00
21574;BME280;10948;48.706;9.258;2023-03-19T01:35:50;97541.72;;;9.79;100.00
21574;BME280;10948;48.706;9.258;2023-03-19T01:38:15;97548.84;;;9.61;100.00
21574;BME280;10948;48.706;9.258;2023-03-19T01:40:45;97558.16;;;9.65;100.00
21574;BME280;10948;48.706;9.258;2023-03-19T01:43:21;97556.13;;;9.84;100.00
21574;BME280;10948;48.706;9.258;2023-03-19T01:45:48;97553.25;;;9.89;100.00
21574;BME280;10948;48.706;9.258;2023-03-19T01:48:57;97552.66;;;9.98;100.00
21574;BME280;10948;48.706;9.258;2023-03-19T01:51:03;97549.78;;;10.16;100.00
21574;BME280;10948;48.706;9.258;2023-03-19T01:53:30;97548.88;;;10.03;100.00
21574;BME280;10948;48.706;9.258;2023-03-19T01:56:03;97540.31;;;9.87;100.00
21574;BME280;10948;48.706;9.258;2023-03-19T01:58:31;97550.28;;;9.81;100.00
21574;BME280;10948;48.706;9.258;2023-03-19T02:00:56;97542.78;;;10.04;100.00
21574;BME280;10948;48.706;9.258;2023-03-19T02:03:23;97550.72;;;9.87;100.00
21574;BME280;10948;48.706;9.258;2023-03-19T02:05:48;97554.97;;;10.02;100.00
21574;BME280;10948;48.706;9.258;2023-03-19T02:08:15;97546.66;;;9.97;100.00
21574;BME280;10948;48.706;9.258;2023-03-19T02:10:41;97549.91;;;9.87;100.00
21574;BME280;10948;48.706;9.258;2023-03-19T02:13:07;97545.44;;;9.89;100.00
21574;BME280;10948;48.706;9.258;2023-03-19T02:15:32;97551.75;;;10.13;100.00
21574;BME280;10948;48.706;9.258;2023-03-19T02:17:58;97549.06;;;10.14;100.00
21574;BME280;10948;48.706;9.258;2023-03-19T02:20:47;97553.06;;;10.60;100.00
21574;BME280;10948;48.706;9.258;2023-03-19T02:26:00;97535.59;;;11.27;98.85
21574;BME280;10948;48.706;9.258;2023-03-19T02:28:26;97537.47;;;11.38;97.60
21574;BME280;10948;48.706;9.258;2023-03-19T02:30:52;97540.41;;;11.58;97.04
21574;BME280;10948;48.706;9.258;2023-03-19T02:33:17;97544.75;;;11.45;100.00
21574;BME280;10948;48.706;9.258;2023-03-19T02:35:46;97538.72;;;11.57;100.00
21574;BME280;10948;48.706;9.258;2023-03-19T02:38:13;97543.31;;;11.54;100.00
21574;BME280;10948;48.706;9.258;2023-03-19T02:40:50;97542.78;;;11.49;100.00
21574;BME280;10948;48.706;9.258;2023-03-19T02:43:16;97547.81;;;11.52;100.00
21574;BME280;10948;48.706;9.258;2023-03-19T02:45:41;97558.13;;;11.53;100.00
21574;BME280;10948;48.706;9.258;2023-03-19T02:48:07;97560.81;;;11.39;100.00
21574;BME280;10948;48.706;9.258;2023-03-19T02:50:32;97566.63;;;11.30;100.00
21574;BME280;10948;48.706;9.258;2023-03-19T02:52:57;97572.59;;;11.45;100.00
21574;BME280;10948;48.706;9.258;2023-03-19T02:55:22;97567.88;;;11.37;100.00
21574;BME280;10948;48.706;9.258;2023-03-19T02:57:48;97571.94;;;11.29;100.00
21574;BME280;10948;48.706;9.258;2023-03-19T03:00:13;97573.94;;;11.38;100.00
21574;BME280;10948;48.706;9.258;2023-03-19T03:02:39;97571.84;;;11.30;100.00
21574;BME280;10948;48.706;9.258;2023-03-19T03:05:04;97565.34;;;11.11;100.00
21574;BME280;10948;48.706;9.258;2023-03-19T03:07:30;97573.84;;;10.74;100.00
21574;BME280;10948;48.706;9.258;2023-03-19T03:09:55;97566.03;;;10.74;100.00
21574;BME280;10948;48.706;9.258;2023-03-19T03:12:20;97564.03;;;10.65;100.00
21574;BME280;10948;48.706;9.258;2023-03-19T03:14:46;97569.13;;;10.67;100.00
21574;BME280;10948;48.706;9.258;2023-03-19T03:17:12;97567.00;;;10.59;100.00
21574;BME280;10948;48.706;9.258;2023-03-19T03:19:37;97588.22;;;10.53;100.00
21574;BME280;10948;48.706;9.258;2023-03-19T03:22:02;97594.28;;;10.26;100.00
21574;BME280;10948;48.706;9.258;2023-03-19T03:24:28;97596.88;;;10.80;100.00
21574;BME280;10948;48.706;9.258;2023-03-19T03:26:53;97602.47;;;10.74;100.00
21574;BME280;10948;48.706;9.258;2023-03-19T03:29:18;97595.22;;;10.79;100.00
21574;BME280;10948;48.706;9.258;2023-03-19T03:31:43;97601.09;;;10.95;100.00
21574;BME280;10948;48.706;9.258;2023-03-19T03:34:09;97599.72;;;10.63;100.00
21574;BME280;10948;48.706;9.258;2023-03-19T03:36:34;97595.22;;;10.79;100.00
21574;BME280;10948;48.706;9.258;2023-03-19T03:38:59;97583.91;;;10.66;100.00
21574;BME280;10948;48.706;9.258;2023-03-19T03:41:24;97578.81;;;10.51;100.00
21574;BME280;10948;48.706;9.258;2023-03-19T03:43:50;97579.50;;;10.40;100.00
21574;BME280;10948;48.706;9.258;2023-03-19T03:46:15;97577.47;;;10.31;100.00
21574;BME280;10948;48.706;9.258;2023-03-19T03:48:40;97583.88;;;10.26;100.00
21574;BME280;10948;48.706;9.258;2023-03-19T03:51:05;97584.94;;;10.23;100.00
21574;BME280;10948;48.706;9.258;2023-03-19T03:53:31;97596.00;;;10.53;100.00
21574;BME280;10948;48.706;9.258;2023-03-19T03:55:56;97590.63;;;10.42;100.00
21574;BME280;10948;48.706;9.258;2023-03-19T03:58:21;97597.25;;;10.20;100.00
21574;BME280;10948;48.706;9.258;2023-03-19T04:00:48;97600.09;;;10.01;100.00
21574;BME280;10948;48.706;9.258;2023-03-19T04:03:13;97604.22;;;10.19;100.00
21574;BME280;10948;48.706;9.258;2023-03-19T04:05:38;97609.47;;;10.60;100.00
21574;BME280;10948;48.706;9.258;2023-03-19T04:08:04;97610.91;;;10.51;100.00
21574;BME280;10948;48.706;9.258;2023-03-19T04:10:30;97612.13;;;10.18;100.00
21574;BME280;10948;48.706;9.258;2023-03-19T04:12:55;97607.75;;;10.32;100.00
21574;BME280;10948;48.706;9.258;2023-03-19T04:15:20;97609.03;;;9.97;100.00
21574;BME280;10948;48.706;9.258;2023-03-19T04:17:45;97620.41;;;10.10;100.00
21574;BME280;10948;48.706;9.258;2023-03-19T04:20:11;97615.75;;;10.15;100.00
21574;BME280;10948;48.706;9.258;2023-03-19T04:22:36;97617.78;;;10.24;100.00
21574;BME280;10948;48.706;9.258;2023-03-19T04:25:01;97611.28;;;10.31;100.00
21574;BME280;10948;48.706;9.258;2023-03-19T04:27:27;97617.59;;;10.27;100.00
21574;BME280;10948;48.706;9.258;2023-03-19T04:29:52;97608.50;;;10.20;100.00
21574;BME280;10948;48.706;9.258;2023-03-19T04:32:17;97608.69;;;10.31;100.00
21574;BME280;10948;48.706;9.258;2023-03-19T04:34:42;97612.88;;;10.34;100.00
21574;BME280;10948;48.706;9.258;2023-03-19T04:37:08;97616.66;;;10.28;100.00
21574;BME280;10948;48.706;9.258;2023-03-19T04:39:34;97619.63;;;10.22;100.00
21574;BME280;10948;48.706;9.258;2023-03-19T04:41:59;97621.22;;;10.11;100.00
21574;BME280;10948;48.706;9.258;2023-03-19T04:44:24;97628.00;;;10.13;100.00
21574;BME280;10948;48.706;9.258;2023-03-19T04:46:50;97625.19;;;10.16;100.00
21574;BME280;10948;48.706;9.258;2023-03-19T04:49:15;97633.56;;;10.07;100.00
21574;BME280;10948;48.706;9.258;2023-03-19T04:51:40;97629.13;;;10.23;100.00
21574;BME280;10948;48.706;9.258;2023-03-19T04:54:06;97624.44;;;10.00;100.00
21574;BME280;10948;48.706;9.258;2023-03-19T04:56:32;97632.47;;;10.25;100.00
21574;BME280;10948;48.706;9.258;2023-03-19T04:58:57;97630.88;;;10.23;100.00
21574;BME280;10948;48.706;9.258;2023-03-19T05:01:22;97636.72;;;10.26;100.00
21574;BME280;10948;48.706;9.258;2023-03-19T05:03:48;97637.03;;;10.08;100.00
21574;BME280;10948;48.706;9.258;2023-03-19T05:06:14;97639.38;;;9.97;100.00
21574;BME280;10948;48.706;9.258;2023-03-19T05:08:39;97637.41;;;9.86;100.00
21574;BME280;10948;48.706;9.258;2023-03-19T05:11:04;97645.84;;;9.76;100.00
21574;BME280;10948;48.706;9.258;2023-03-19T05:13:30;97643.59;;;10.13;100.00
21574;BME280;10948;48.706;9.258;2023-03-19T05:15:55;97637.44;;;10.00;100.00
21574;BME280;10948;48.706;9.258;2023-03-19T05:18:20;97657.63;;;9.81;100.00
21574;BME280;10948;48.706;9.258;2023-03-19T05:20:45;97658.00;;;9.75;100.00
21574;BME280;10948;48.706;9.258;2023-03-19T05:23:11;97664.72;;;9.93;100.00
21574;BME280;10948;48.706;9.258;2023-03-19T05:25:37;97664.34;;;9.85;100.00
21574;BME280;10948;48.706;9.258;2023-03-19T05:28:02;97663.44;;;10.00;100.00
21574;BME280;10948;48.706;9.258;2023-03-19T05:30:28;97672.56;;;10.07;100.00
21574;BME280;10948;48.706;9.258;2023-03-19T05:32:55;97664.59;;;10.24;100.00
21574;BME280;10948;48.706;9.258;2023-03-19T05:35:20;97660.78;;;10.16;100.00
21574;BME280;10948;48.706;9.258;2023-03-19T05:37:45;97661.81;;;10.13;100.00
21574;BME280;10948;48.706;9.258;2023-03-19T05:40:11;97654.69;;;10.01;100.00
21574;BME280;10948;48.706;9.258;2023-03-19T05:42:37;97653.28;;;10.11;100.00
21574;BME280;10948;48.706;9.258;2023-03-19T05:45:02;97652.63;;;10.08;100.00
21574;BME280;10948;48.706;9.258;2023-03-19T05:47:28;97653.28;;;10.11;100.00
21574;BME280;10948;48.706;9.258;2023-03-19T05:49:53;97656.03;;;10.08;100.00
21574;BME280;10948;48.706;9.258;2023-03-19T05:52:19;97664.91;;;9.90;100.00
21574;BME280;10948;48.706;9.258;2023-03-19T05:54:44;97673.91;;;9.99;100.00
21574;BME280;10948;48.706;9.258;2023-03-19T05:57:13;97673.53;;;9.91;100.00
21574;BME280;10948;48.706;9.258;2023-03-19T05:59:38;97667.88;;;9.98;100.00
21574;BME280;10948;48.706;9.258;2023-03-19T06:02:04;97675.00;;;10.24;100.00
21574;BME280;10948;48.706;9.258;2023-03-19T06:04:29;97672.50;;;10.23;100.00
21574;BME280;10948;48.706;9.258;2023-03-19T06:06:54;97676.31;;;10.31;100.00
21574;BME280;10948;48.706;9.258;2023-03-19T06:09:20;97680.00;;;10.13;100.00
21574;BME280;10948;48.706;9.258;2023-03-19T06:11:45;97687.19;;;9.94;100.00
21574;BME280;10948;48.706;9.258;2023-03-19T06:14:10;97695.81;;;9.81;100.00
21574;BME280;10948;48.706;9.258;2023-03-19T06:16:36;97696.47;;;9.84;100.00
21574;BME280;10948;48.706;9.258;2023-03-19T06:19:01;97701.47;;;10.17;100.00
21574;BME280;10948;48.706;9.258;2023-03-19T06:21:26;97705.72;;;10.04;100.00
21574;BME280;10948;48.706;9.258;2023-03-19T06:23:56;97700.72;;;10.15;100.00
21574;BME280;10948;48.706;9.258;2023-03-19T06:26:22;97695.25;;;10.33;100.00
21574;BME280;10948;48.706;9.258;2023-03-19T06:28:47;97699.44;;;10.36;100.00
21574;BME280;10948;48.706;9.258;2023-03-19T06:31:13;97701.75;;;10.40;100.00
21574;BME280;10948;48.706;9.258;2023-03-19T06:33:38;97698.69;;;10.34;100.00
21574;BME280;10948;48.706;9.258;2023-03-19T06:36:03;97698.56;;;10.07;100.00
21574;BME280;10948;48.706;9.258;2023-03-19T06:38:29;97700.38;;;10.21;100.00
21574;BME280;10948;48.706;9.258;2023-03-19T06:40:54;97695.06;;;10.36;100.00
21574;BME280;10948;48.706;9.258;2023-03-19T06:43:19;97696.56;;;10.26;100.00
21574;BME280;10948;48.706;9.258;2023-03-19T06:45:46;97707.75;;;10.13;100.00
21574;BME280;10948;48.706;9.258;2023-03-19T06:48:11;97698.41;;;10.38;100.00
21574;BME280;10948;48.706;9.258;2023-03-19T06:50:39;97702.69;;;10.53;100.00
21574;BME280;10948;48.706;9.258;2023-03-19T06:53:04;97699.81;;;10.58;100.00
21574;BME280;10948;48.706;9.258;2023-03-19T06:55:29;97701.69;;;10.96;100.00
21574;BME280;10948;48.706;9.258;2023-03-19T06:57:55;97703.94;;;11.02;100.00
21574;BME280;10948;48.706;9.258;2023-03-19T07:00:20;97696.06;;;10.89;100.00
21574;BME280;10948;48.706;9.258;2023-03-19T07:02:46;97692.13;;;10.96;100.00
21574;BME280;10948;48.706;9.258;2023-03-19T07:05:11;97691.28;;;10.96;100.00
21574;BME280;10948;48.706;9.258;2023-03-19T07:07:36;97691.13;;;10.99;100.00
21574;BME280;10948;48.706;9.258;2023-03-19T07:10:02;97695.06;;;10.78;100.00
21574;BME280;10948;48.706;9.258;2023-03-19T07:12:28;97694.50;;;10.73;100.00
21574;BME280;10948;48.706;9.258;2023-03-19T07:14:53;97690.03;;;10.61;100.00
21574;BME280;10948;48.706;9.258;2023-03-19T07:17:20;97696.00;;;10.77;100.00
21574;BME280;10948;48.706;9.258;2023-03-19T07:19:45;97694.56;;;10.85;100.00
21574;BME280;10948;48.706;9.258;2023-03-19T07:22:11;97695.59;;;10.97;100.00
21574;BME280;10948;48.706;9.258;2023-03-19T07:24:36;97699.66;;;11.01;100.00
21574;BME280;10948;48.706;9.258;2023-03-19T07:27:01;97700.38;;;11.17;100.00
21574;BME280;10948;48.706;9.258;2023-03-19T07:29:27;97699.34;;;11.19;100.00
21574;BME280;10948;48.706;9.258;2023-03-19T07:31:52;97708.31;;;11.28;100.00
21574;BME280;10948;48.706;9.258;2023-03-19T07:34:17;97706.53;;;11.02;100.00
21574;BME280;10948;48.706;9.258;2023-03-19T07:36:42;97713.41;;;11.17;100.00
21574;BME280;10948;48.706;9.258;2023-03-19T07:39:08;97708.16;;;11.31;100.00
21574;BME280;10948;48.706;9.258;2023-03-19T07:41:33;97720.50;;;11.41;100.00
21574;BME280;10948;48.706;9.258;2023-03-19T07:43:58;97706.19;;;11.61;100.00
21574;BME280;10948;48.706;9.258;2023-03-19T07:46:23;97705.63;;;11.82;100.00
21574;BME280;10948;48.706;9.258;2023-03-19T07:48:48;97712.56;;;12.08;100.00
21574;BME280;10948;48.706;9.258;2023-03-19T07:51:14;97709.66;;;12.13;100.00
21574;BME280;10948;48.706;9.258;2023-03-19T07:53:39;97709.66;;;12.13;100.00
21574;BME280;10948;48.706;9.258;2023-03-19T07:56:04;97711.41;;;12.00;100.00
21574;BME280;10948;48.706;9.258;2023-03-19T07:58:30;97714.81;;;11.88;100.00
21574;BME280;10948;48.706;9.258;2023-03-19T08:00:55;97705.63;;;11.70;100.00
21574;BME280;10948;48.706;9.258;2023-03-19T08:03:20;97705.63;;;11.82;100.00
21574;BME280;10948;48.706;9.258;2023-03-19T08:05:49;97704.38;;;11.88;100.00
21574;BME280;10948;48.706;9.258;2023-03-19T08:08:15;97710.53;;;11.87;100.00
21574;BME280;10948;48.706;9.258;2023-03-19T08:10:42;97715.50;;;12.04;100.00
21574;BME280;10948;48.706;9.258;2023-03-19T08:13:08;97709.72;;;11.99;100.00
21574;BME280;10948;48.706;9.258;2023-03-19T08:15:34;97716.53;;;12.01;100.00
21574;BME280;10948;48.706;9.258;2023-03-19T08:18:01;97712.25;;;12.13;100.00
21574;BME280;10948;48.706;9.258;2023-03-19T08:20:27;97706.91;;;12.02;100.00
21574;BME280;10948;48.706;9.258;2023-03-19T08:22:52;97709.34;;;12.05;100.00
21574;BME280;10948;48.706;9.258;2023-03-19T08:25:18;97707.34;;;12.08;100.00
21574;BME280;10948;48.706;9.258;2023-03-19T08:27:43;97700.78;;;12.28;100.00
21574;BME280;10948;48.706;9.258;2023-03-19T08:30:09;97702.75;;;12.12;100.00
21574;BME280;10948;48.706;9.258;2023-03-19T08:32:34;97706.97;;;12.39;100.00
21574;BME280;10948;48.706;9.258;2023-03-19T08:35:00;97716.75;;;12.11;100.00
21574;BME280;10948;48.706;9.258;2023-03-19T08:37:25;97701.63;;;12.41;100.00
21574;BME280;10948;48.706;9.258;2023-03-19T08:39:51;97712.50;;;13.21;100.00
21574;BME280;10948;48.706;9.258;2023-03-19T08:42:16;97704.50;;;13.35;100.00
21574;BME280;10948;48.706;9.258;2023-03-19T08:44:42;97701.56;;;13.39;100.00
21574;BME280;10948;48.706;9.258;2023-03-19T08:47:07;97704.66;;;12.22;100.00
21574;BME280;10948;48.706;9.258;2023-03-19T08:49:32;97708.41;;;12.56;100.00
21574;BME280;10948;48.706;9.258;2023-03-19T08:51:57;97708.47;;;12.92;100.00
21574;BME280;10948;48.706;9.258;2023-03-19T08:54:23;97715.78;;;12.87;100.00
21574;BME280;10948;48.706;9.258;2023-03-19T08:56:48;97708.16;;;12.96;100.00
21574;BME280;10948;48.706;9.258;2023-03-19T08:59:15;97711.69;;;13.08;100.00
21574;BME280;10948;48.706;9.258;2023-03-19T09:01:41;97710.19;;;13.29;100.00
21574;BME280;10948;48.706;9.258;2023-03-19T09:04:06;97711.91;;;13.41;100.00
21574;BME280;10948;48.706;9.258;2023-03-19T09:06:31;97717.91;;;13.30;100.00
21574;BME280;10948;48.706;9.258;2023-03-19T09:08:56;97718.31;;;13.84;100.00
21574;BME280;10948;48.706;9.258;2023-03-19T09:11:22;97722.19;;;14.13;100.00
21574;BME280;10948;48.706;9.258;2023-03-19T09:13:47;97717.31;;;14.54;100.00
21574;BME280;10948;48.706;9.258;2023-03-19T09:16:12;97719.47;;;14.71;100.00
21574;BME280;10948;48.706;9.258;2023-03-19T09:18:38;97716.00;;;15.03;100.00
21574;BME280;10948;48.706;9.258;2023-03-19T09:21:03;97712.56;;;15.03;100.00
21574;BME280;10948;48.706;9.258;2023-03-19T09:23:28;97721.38;;;14.91;100.00
21574;BME280;10948;48.706;9.258;2023-03-19T09:25:53;97714.47;;;15.23;100.00
21574;BME280;10948;48.706;9.258;2023-03-19T09:28:19;97709.91;;;15.14;100.00
21574;BME280;10948;48.706;9.258;2023-03-19T09:30:45;97715.63;;;15.30;100.00
21574;BME280;10948;48.706;9.258;2023-03-19T09:33:11;97723.94;;;15.88;96.27
21574;BME280;10948;48.706;9.258;2023-03-19T09:35:37;97708.00;;;17.61;86.02
21574;BME280;10948;48.706;9.258;2023-03-19T09:38:03;97711.34;;;18.20;80.53
21574;BME280;10948;48.706;9.258;2023-03-19T09:40:34;97704.56;;;19.46;75.72
21574;BME280;10948;48.706;9.258;2023-03-19T09:45:28;97708.22;;;21.68;63.28
21574;BME280;10948;48.706;9.258;2023-03-19T09:47:55;97709.09;;;21.43;60.33
21574;BME280;10948;48.706;9.258;2023-03-19T09:50:23;97702.78;;;21.94;60.25
21574;BME280;10948;48.706;9.258;2023-03-19T09:57:40;97698.72;;;24.54;52.33
21574;BME280;10948;48.706;9.258;2023-03-19T10:00:19;97696.84;;;23.65;51.48
21574;BME280;10948;48.706;9.258;2023-03-19T10:02:46;97691.06;;;23.15;51.34
21574;BME280;10948;48.706;9.258;2023-03-19T10:05:24;97695.25;;;23.78;52.08
21574;BME280;10948;48.706;9.258;2023-03-19T10:13:10;97683.25;;;23.29;51.64
21574;BME280;10948;48.706;9.258;2023-03-19T10:15:42;97678.78;;;21.38;49.62
21574;BME280;10948;48.706;9.258;2023-03-19T10:18:23;97677.75;;;21.80;50.28
21574;BME280;10948;48.706;9.258;2023-03-19T10:21:10;97671.47;;;22.45;48.50
21574;BME280;10948;48.706;9.258;2023-03-19T10:26:20;97667.34;;;23.13;46.63
21574;BME280;10948;48.706;9.258;2023-03-19T10:28:58;97659.16;;;24.14;44.44
21574;BME280;10948;48.706;9.258;2023-03-19T10:31:27;97665.19;;;22.54;46.45
21574;BME280;10948;48.706;9.258;2023-03-19T10:36:21;97675.34;;;19.75;47.82
21574;BME280;10948;48.706;9.258;2023-03-19T10:38:50;97662.53;;;21.82;48.23
21574;BME280;10948;48.706;9.258;2023-03-19T10:41:30;97652.75;;;21.25;49.34
21574;BME280;10948;48.706;9.258;2023-03-19T10:43:59;97651.16;;;21.48;47.19
21574;BME280;10948;48.706;9.258;2023-03-19T10:46:26;97641.28;;;22.62;45.22
21574;BME280;10948;48.706;9.258;2023-03-19T10:48:52;97646.88;;;21.63;45.58
21574;BME280;10948;48.706;9.258;2023-03-19T10:51:20;97643.28;;;22.12;47.21
21574;BME280;10948;48.706;9.258;2023-03-19T10:53:46;97645.56;;;20.76;49.42
21574;BME280;10948;48.706;9.258;2023-03-19T10:56:32;97635.16;;;21.08;48.28
21574;BME280;10948;48.706;9.258;2023-03-19T10:58:59;97632.69;;;22.44;47.47
21574;BME280;10948;48.706;9.258;2023-03-19T11:01:26;97638.34;;;21.93;47.03
21574;BME280;10948;48.706;9.258;2023-03-19T11:03:55;97636.00;;;21.74;47.52
21574;BME280;10948;48.706;9.258;2023-03-19T11:06:25;97639.31;;;21.92;46.61
21574;BME280;10948;48.706;9.258;2023-03-19T11:09:51;97637.56;;;23.34;44.07
21574;BME280;10948;48.706;9.258;2023-03-19T11:11:46;97631.63;;;24.07;42.14
21574;BME280;10948;48.706;9.258;2023-03-19T11:14:16;97633.03;;;23.42;43.97
21574;BME280;10948;48.706;9.258;2023-03-19T11:16:55;97637.09;;;24.28;41.90
21574;BME280;10948;48.706;9.258;2023-03-19T11:19:23;97643.59;;;23.20;42.79
21574;BME280;10948;48.706;9.258;2023-03-19T11:22:03;97639.09;;;23.28;43.67
21574;BME280;10948;48.706;9.258;2023-03-19T11:24:39;97630.69;;;22.38;44.06
21574;BME280;10948;48.706;9.258;2023-03-19T11:27:05;97634.91;;;21.27;44.51
21574;BME280;10948;48.706;9.258;2023-03-19T11:29:31;97635.56;;;21.37;45.75
21574;BME280;10948;48.706;9.258;2023-03-19T11:32:01;97632.69;;;22.12;44.93
21574;BME280;10948;48.706;9.258;2023-03-19T11:37:42;97631.13;;;21.54;45.03
21574;BME280;10948;48.706;9.258;2023-03-19T11:50:44;97628.75;;;23.86;41.37
21574;BME280;10948;48.706;9.258;2023-03-19T11:53:24;97615.78;;;23.91;41.87
21574;BME280;10948;48.706;9.258;2023-03-19T11:56:11;97620.03;;;22.70;42.41
21574;BME280;10948;48.706;9.258;2023-03-19T12:06:32;97606.66;;;23.63;42.79
21574;BME280;10948;48.706;9.258;2023-03-19T12:11:46;97602.28;;;24.81;38.37
21574;BME280;10948;48.706;9.258;2023-03-19T12:14:22;97608.41;;;24.01;41.13
21574;BME280;10948;48.706;9.258;2023-03-19T12:34:10;97597.56;;;20.63;47.82
21574;BME280;10948;48.706;9.258;2023-03-19T12:36:49;97597.41;;;20.98;46.89
21574;BME280;10948;48.706;9.258;2023-03-19T12:39:18;97594.47;;;21.09;47.31
21574;BME280;10948;48.706;9.258;2023-03-19T12:41:44;97596.13;;;21.10;45.77
21574;BME280;10948;48.706;9.258;2023-03-19T12:49:32;97601.69;;;22.99;44.29
21574;BME280;10948;48.706;9.258;2023-03-19T12:54:41;97586.63;;;22.29;44.52
21574;BME280;10948;48.706;9.258;2023-03-19T12:59:44;97587.50;;;21.08;45.81
21574;BME280;10948;48.706;9.258;2023-03-19T13:03:14;97583.56;;;20.45;47.78
21574;BME280;10948;48.706;9.258;2023-03-19T13:05:18;97588.84;;;19.94;47.94
21574;BME280;10948;48.706;9.258;2023-03-19T13:07:54;97588.38;;;20.16;48.65
21574;BME280;10948;48.706;9.258;2023-03-19T13:10:21;97586.31;;;20.36;48.24
21574;BME280;10948;48.706;9.258;2023-03-19T13:12:47;97580.41;;;20.75;48.28
21574;BME280;10948;48.706;9.258;2023-03-19T13:15:35;97584.13;;;19.80;48.06
21574;BME280;10948;48.706;9.258;2023-03-19T13:23:17;97576.34;;;22.34;45.58
21574;BME280;10948;48.706;9.258;2023-03-19T13:25:45;97581.53;;;22.04;46.30
21574;BME280;10948;48.706;9.258;2023-03-19T13:28:19;97574.34;;;21.48;46.52
21574;BME280;10948;48.706;9.258;2023-03-19T13:31:06;97577.81;;;20.83;46.90
21574;BME280;10948;48.706;9.258;2023-03-19T13:33:32;97572.56;;;19.81;48.28
21574;BME280;10948;48.706;9.258;2023-03-19T13:36:03;97565.66;;;20.31;48.12
21574;BME280;10948;48.706;9.258;2023-03-19T13:38:33;97580.75;;;20.13;49.61
21574;BME280;10948;48.706;9.258;2023-03-19T13:41:01;97586.13;;;19.86;50.66
21574;BME280;10948;48.706;9.258;2023-03-19T13:46:38;97579.75;;;19.54;51.12
21574;BME280;10948;48.706;9.258;2023-03-19T13:53:38;97590.53;;;18.98;51.97
21574;BME280;10948;48.706;9.258;2023-03-19T13:56:07;97577.94;;;18.92;52.87
21574;BME280;10948;48.706;9.258;2023-03-19T13:58:45;97580.38;;;18.76;51.94
21574;BME280;10948;48.706;9.258;2023-03-19T14:01:38;97588.69;;;19.08;52.81
21574;BME280;10948;48.706;9.258;2023-03-19T14:04:03;97592.69;;;18.85;52.04
21574;BME280;10948;48.706;9.258;2023-03-19T14:06:39;97584.69;;;18.77;52.82
21574;BME280;10948;48.706;9.258;2023-03-19T14:09:06;97587.22;;;18.69;53.57
21574;BME280;10948;48.706;9.258;2023-03-19T14:11:52;97590.75;;;18.87;53.74
21574;BME280;10948;48.706;9.258;2023-03-19T14:14:18;97580.56;;;18.92;53.85
21574;BME280;10948;48.706;9.258;2023-03-19T14:16:46;97589.81;;;18.52;54.79
21574;BME280;10948;48.706;9.258;2023-03-19T14:19:15;97586.22;;;18.43;55.30
21574;BME280;10948;48.706;9.258;2023-03-19T14:21:59;97588.97;;;17.86;55.86